PWSweather.com
Personal Weather Stations
Station Observations
WAIROAHB
Wairoa, Northern Hawkes Bay -NZ 4108

WairoaNorthern Hawkes Bay -NZ 4108

Lat: -39.04516934, Lon: 177.4263989

Elevation: 156

Station Type: WS3083

http://wairoa.net/weather/index.htm

High Low Average
Temperature 62.8°F17.1°F 37.8°F3.2°F 50.0°F10.0°F
Dew Point 47.6°F8.7°F 37.5°F3.1°F 42.6°F5.9°F
Winds 13.6 mph -21.9 mph - Calm Calm 4.6 mph 7.4 mph
Wind Gusts 22.1 mph35.6 mph -- 9.5 mph15.3 mph
Humidity 99% 47% 78%
Pressure 30.11 in1019.60 in 29.87 in1011.50 in -
Precipitation 0.00 in0.00 in - -
Hour Temp Dew Point Humidity Winds Wind Gusts Pressure Precip Precip Rate Daily Precip Total
12:00 AM 42.6°F5.9°C 42.1°F5.6°C 98% 4.5 mph NNW7.2 kmh NNW 9.8 mph15.8 kmh 30.10 in1019.3 mb 0.00 in0.0 mm 0.00 in0.0 mm 0.00 in0.0 mm
12:10 AM 42.8°F6.0°C 42.0°F5.6°C 97% 3.1 mph N5.0 kmh N 7.6 mph12.2 kmh 30.09 in1019.0 mb 0.00 in0.0 mm 0.00 in0.0 mm 0.00 in0.0 mm
12:20 AM 42.4°F5.8°C 41.7°F5.4°C 97% 2.2 mph NNW3.5 kmh NNW 6.9 mph11.1 kmh 30.09 in1019.0 mb 0.00 in0.0 mm 0.00 in0.0 mm 0.00 in0.0 mm
12:30 AM 42.1°F5.6°C 41.3°F5.2°C 97% 3.1 mph NW5.0 kmh NW 5.4 mph8.7 kmh 30.08 in1018.6 mb 0.00 in0.0 mm 0.00 in0.0 mm 0.00 in0.0 mm
12:40 AM 41.9°F5.5°C 41.4°F5.2°C 98% 3.8 mph NW6.1 kmh NW 5.4 mph8.7 kmh 30.09 in1019.0 mb 0.00 in0.0 mm 0.00 in0.0 mm 0.00 in0.0 mm
12:50 AM 41.9°F5.5°C 41.4°F5.2°C 98% 3.1 mph NNW5.0 kmh NNW 6.0 mph9.7 kmh 30.08 in1018.6 mb 0.00 in0.0 mm 0.00 in0.0 mm 0.00 in0.0 mm
01:00 AM 41.9°F5.5°C 41.4°F5.2°C 98% 3.8 mph N6.1 kmh N 6.0 mph9.7 kmh 30.09 in1019.0 mb 0.00 in0.0 mm 0.00 in0.0 mm 0.00 in0.0 mm
01:10 AM 41.9°F5.5°C 41.6°F5.3°C 99% 4.5 mph NNW7.2 kmh NNW 6.9 mph11.1 kmh 30.09 in1019.0 mb 0.00 in0.0 mm 0.00 in0.0 mm 0.00 in0.0 mm
01:20 AM 42.1°F5.6°C 41.8°F5.4°C 99% 5.4 mph NNW8.7 kmh NNW 8.3 mph13.4 kmh 30.09 in1019.0 mb 0.00 in0.0 mm 0.00 in0.0 mm 0.00 in0.0 mm
01:30 AM 42.3°F5.7°C 42.0°F5.6°C 99% 6.9 mph NNW11.1 kmh NNW 8.3 mph13.4 kmh 30.09 in1019.0 mb 0.00 in0.0 mm 0.00 in0.0 mm 0.00 in0.0 mm
01:40 AM 41.9°F5.5°C 41.4°F5.2°C 98% 2.2 mph NNW3.5 kmh NNW 9.2 mph14.8 kmh 30.08 in1018.6 mb 0.00 in0.0 mm 0.00 in0.0 mm 0.00 in0.0 mm
01:50 AM 41.4°F5.2°C 40.6°F4.8°C 97% 3.1 mph N5.0 kmh N 6.0 mph9.7 kmh 30.07 in1018.3 mb 0.00 in0.0 mm 0.00 in0.0 mm 0.00 in0.0 mm
02:00 AM 41.0°F5.0°C 40.5°F4.7°C 98% 5.4 mph NNW8.7 kmh NNW 8.3 mph13.4 kmh 30.08 in1018.6 mb 0.00 in0.0 mm 0.00 in0.0 mm 0.00 in0.0 mm
02:10 AM 41.0°F5.0°C 40.5°F4.7°C 98% 6.0 mph NW9.7 kmh NW 9.8 mph15.8 kmh 30.08 in1018.6 mb 0.00 in0.0 mm 0.00 in0.0 mm 0.00 in0.0 mm
02:20 AM 41.0°F5.0°C 40.7°F4.8°C 99% 5.4 mph NW8.7 kmh NW 9.2 mph14.8 kmh 30.08 in1018.6 mb 0.00 in0.0 mm 0.00 in0.0 mm 0.00 in0.0 mm
02:30 AM 41.0°F5.0°C 40.7°F4.8°C 99% 5.4 mph NW8.7 kmh NW 9.8 mph15.8 kmh 30.09 in1019.0 mb 0.00 in0.0 mm 0.00 in0.0 mm 0.00 in0.0 mm
02:40 AM 41.4°F5.2°C 41.1°F5.1°C 99% 6.0 mph NW9.7 kmh NW 12.1 mph19.5 kmh 30.08 in1018.6 mb 0.00 in0.0 mm 0.00 in0.0 mm 0.00 in0.0 mm
02:50 AM 41.4°F5.2°C 41.1°F5.1°C 99% 4.5 mph NNW7.2 kmh NNW 9.8 mph15.8 kmh 30.07 in1018.3 mb 0.00 in0.0 mm 0.00 in0.0 mm 0.00 in0.0 mm
03:00 AM 41.0°F5.0°C 40.7°F4.8°C 99% 3.8 mph NW6.1 kmh NW 7.6 mph12.2 kmh 30.07 in1018.3 mb 0.00 in0.0 mm 0.00 in0.0 mm 0.00 in0.0 mm
03:10 AM 40.8°F4.9°C 40.6°F4.8°C 99% 5.4 mph NW8.7 kmh NW 7.6 mph12.2 kmh 30.07 in1018.3 mb 0.00 in0.0 mm 0.00 in0.0 mm 0.00 in0.0 mm
03:20 AM 40.8°F4.9°C 40.6°F4.8°C 99% 3.8 mph NW6.1 kmh NW 9.2 mph14.8 kmh 30.07 in1018.3 mb 0.00 in0.0 mm 0.00 in0.0 mm 0.00 in0.0 mm
03:30 AM 40.5°F4.7°C 40.2°F4.6°C 99% 5.4 mph NW8.7 kmh NW 8.3 mph13.4 kmh 30.07 in1018.3 mb 0.00 in0.0 mm 0.00 in0.0 mm 0.00 in0.0 mm
03:40 AM 39.9°F4.4°C 39.7°F4.3°C 99% 4.5 mph NNW7.2 kmh NNW 8.3 mph13.4 kmh 30.07 in1018.3 mb 0.00 in0.0 mm 0.00 in0.0 mm 0.00 in0.0 mm
03:50 AM 39.9°F4.4°C 39.7°F4.3°C 99% 6.9 mph NW11.1 kmh NW 8.3 mph13.4 kmh 30.06 in1017.9 mb 0.00 in0.0 mm 0.00 in0.0 mm 0.00 in0.0 mm
04:00 AM 39.9°F4.4°C 39.7°F4.3°C 99% 5.4 mph NNW8.7 kmh NNW 8.3 mph13.4 kmh 30.06 in1017.9 mb 0.00 in0.0 mm 0.00 in0.0 mm 0.00 in0.0 mm
04:10 AM 39.6°F4.2°C 39.3°F4.1°C 99% 3.8 mph NNW6.1 kmh NNW 6.9 mph11.1 kmh 30.06 in1017.9 mb 0.00 in0.0 mm 0.00 in0.0 mm 0.00 in0.0 mm
04:20 AM 39.4°F4.1°C 39.1°F3.9°C 99% 4.5 mph NNW7.2 kmh NNW 6.9 mph11.1 kmh 30.06 in1017.9 mb 0.00 in0.0 mm 0.00 in0.0 mm 0.00 in0.0 mm
04:30 AM 39.7°F4.3°C 39.5°F4.2°C 99% 5.4 mph N8.7 kmh N 8.3 mph13.4 kmh 30.06 in1017.9 mb 0.00 in0.0 mm 0.00 in0.0 mm 0.00 in0.0 mm
04:40 AM 39.7°F4.3°C 39.5°F4.2°C 99% 6.0 mph NNW9.7 kmh NNW 9.8 mph15.8 kmh 30.07 in1018.3 mb 0.00 in0.0 mm 0.00 in0.0 mm 0.00 in0.0 mm
04:50 AM 40.1°F4.5°C 39.8°F4.3°C 99% 3.1 mph NNW5.0 kmh NNW 8.3 mph13.4 kmh 30.07 in1018.3 mb 0.00 in0.0 mm 0.00 in0.0 mm 0.00 in0.0 mm
05:00 AM 40.1°F4.5°C 39.8°F4.3°C 99% 5.4 mph N8.7 kmh N 8.3 mph13.4 kmh 30.06 in1017.9 mb 0.00 in0.0 mm 0.00 in0.0 mm 0.00 in0.0 mm
05:10 AM 40.1°F4.5°C 39.8°F4.3°C 99% 6.0 mph NNW9.7 kmh NNW 7.6 mph12.2 kmh 30.06 in1017.9 mb 0.00 in0.0 mm 0.00 in0.0 mm 0.00 in0.0 mm
05:20 AM 39.7°F4.3°C 39.5°F4.2°C 99% 3.1 mph NNW5.0 kmh NNW 7.6 mph12.2 kmh 30.06 in1017.9 mb 0.00 in0.0 mm 0.00 in0.0 mm 0.00 in0.0 mm
05:30 AM 39.6°F4.2°C 39.3°F4.1°C 99% 4.5 mph NW7.2 kmh NW 8.3 mph13.4 kmh 30.06 in1017.9 mb 0.00 in0.0 mm 0.00 in0.0 mm 0.00 in0.0 mm
05:40 AM 39.4°F4.1°C 39.1°F3.9°C 99% 5.4 mph NW8.7 kmh NW 9.8 mph15.8 kmh 30.06 in1017.9 mb 0.00 in0.0 mm 0.00 in0.0 mm 0.00 in0.0 mm
05:50 AM 39.2°F4.0°C 38.9°F3.8°C 99% 5.4 mph NNW8.7 kmh NNW 9.2 mph14.8 kmh 30.06 in1017.9 mb 0.00 in0.0 mm 0.00 in0.0 mm 0.00 in0.0 mm
06:00 AM 38.8°F3.8°C 38.6°F3.7°C 99% 3.8 mph NW6.1 kmh NW 7.6 mph12.2 kmh 30.06 in1017.9 mb 0.00 in0.0 mm 0.00 in0.0 mm 0.00 in0.0 mm
06:10 AM 38.7°F3.7°C 38.4°F3.6°C 99% 3.8 mph N6.1 kmh N 5.4 mph8.7 kmh 30.07 in1018.3 mb 0.00 in0.0 mm 0.00 in0.0 mm 0.00 in0.0 mm
06:20 AM 38.7°F3.7°C 38.4°F3.6°C 99% 3.8 mph NW6.1 kmh NW 6.0 mph9.7 kmh 30.07 in1018.3 mb 0.00 in0.0 mm 0.00 in0.0 mm 0.00 in0.0 mm
06:30 AM 38.5°F3.6°C 38.2°F3.4°C 99% 1.6 mph NNW2.6 kmh NNW 6.0 mph9.7 kmh 30.06 in1017.9 mb 0.00 in0.0 mm 0.00 in0.0 mm 0.00 in0.0 mm
06:40 AM 38.3°F3.5°C 38.0°F3.3°C 99% 1.6 mph N2.6 kmh N 4.5 mph7.2 kmh 30.07 in1018.3 mb 0.00 in0.0 mm 0.00 in0.0 mm 0.00 in0.0 mm
06:50 AM 38.3°F3.5°C 38.0°F3.3°C 99% 2.2 mph N3.5 kmh N 5.4 mph8.7 kmh 30.07 in1018.3 mb 0.00 in0.0 mm 0.00 in0.0 mm 0.00 in0.0 mm
07:10 AM 37.8°F3.2°C 37.5°F3.1°C 99% Calm Calm 3.8 mph6.1 kmh 30.07 in1018.3 mb 0.00 in0.0 mm 0.00 in0.0 mm 0.00 in0.0 mm
07:20 AM 37.8°F3.2°C 37.5°F3.1°C 99% Calm Calm -- 30.07 in1018.3 mb 0.00 in0.0 mm 0.00 in0.0 mm 0.00 in0.0 mm
07:30 AM 37.8°F3.2°C 37.5°F3.1°C 99% 2.2 mph NNW3.5 kmh NNW 6.0 mph9.7 kmh 30.08 in1018.6 mb 0.00 in0.0 mm 0.00 in0.0 mm 0.00 in0.0 mm
07:40 AM 38.1°F3.4°C 37.9°F3.3°C 99% 5.4 mph NNW8.7 kmh NNW 8.3 mph13.4 kmh 30.09 in1019.0 mb 0.00 in0.0 mm 0.00 in0.0 mm 0.00 in0.0 mm
07:50 AM 39.6°F4.2°C 39.3°F4.1°C 99% 2.2 mph NNW3.5 kmh NNW 8.3 mph13.4 kmh 30.09 in1019.0 mb 0.00 in0.0 mm 0.00 in0.0 mm 0.00 in0.0 mm
08:00 AM 41.0°F5.0°C 40.7°F4.8°C 99% 2.2 mph N3.5 kmh N 6.0 mph9.7 kmh 30.09 in1019.0 mb 0.00 in0.0 mm 0.00 in0.0 mm 0.00 in0.0 mm
08:10 AM 41.5°F5.3°C 41.3°F5.2°C 99% 3.1 mph NW5.0 kmh NW 5.4 mph8.7 kmh 30.09 in1019.0 mb 0.00 in0.0 mm 0.00 in0.0 mm 0.00 in0.0 mm
08:20 AM 41.7°F5.4°C 41.5°F5.3°C 99% 4.5 mph NW7.2 kmh NW 6.0 mph9.7 kmh 30.10 in1019.3 mb 0.00 in0.0 mm 0.00 in0.0 mm 0.00 in0.0 mm
08:30 AM 42.3°F5.7°C 41.2°F5.1°C 96% 3.1 mph NW5.0 kmh NW 6.0 mph9.7 kmh 30.10 in1019.3 mb 0.00 in0.0 mm 0.00 in0.0 mm 0.00 in0.0 mm
08:40 AM 43.0°F6.1°C 41.1°F5.1°C 93% 2.2 mph NW3.5 kmh NW 6.0 mph9.7 kmh 30.10 in1019.3 mb 0.00 in0.0 mm 0.00 in0.0 mm 0.00 in0.0 mm
08:50 AM 43.3°F6.3°C 41.2°F5.1°C 92% 3.1 mph NW5.0 kmh NW 5.4 mph8.7 kmh 30.10 in1019.3 mb 0.00 in0.0 mm 0.00 in0.0 mm 0.00 in0.0 mm
09:00 AM 44.4°F6.9°C 41.7°F5.4°C 90% 2.2 mph NNW3.5 kmh NNW 5.4 mph8.7 kmh 30.10 in1019.3 mb 0.00 in0.0 mm 0.00 in0.0 mm 0.00 in0.0 mm
09:10 AM 47.7°F8.7°C 44.3°F6.8°C 88% Calm Calm 3.8 mph6.1 kmh 30.09 in1019.0 mb 0.00 in0.0 mm 0.00 in0.0 mm 0.00 in0.0 mm
09:20 AM 49.5°F9.7°C 44.2°F6.8°C 82% 4.5 mph N7.2 kmh N 6.0 mph9.7 kmh 30.09 in1019.0 mb 0.00 in0.0 mm 0.00 in0.0 mm 0.00 in0.0 mm
09:30 AM 50.2°F10.1°C 43.6°F6.4°C 78% 3.1 mph NNW5.0 kmh NNW 8.3 mph13.4 kmh 30.09 in1019.0 mb 0.00 in0.0 mm 0.00 in0.0 mm 0.00 in0.0 mm
09:40 AM 50.9°F10.5°C 43.6°F6.4°C 76% 3.1 mph N5.0 kmh N 7.6 mph12.2 kmh 30.10 in1019.3 mb 0.00 in0.0 mm 0.00 in0.0 mm 0.00 in0.0 mm
09:50 AM 51.3°F10.7°C 44.0°F6.7°C 76% 3.1 mph NNW5.0 kmh NNW 7.6 mph12.2 kmh 30.10 in1019.3 mb 0.00 in0.0 mm 0.00 in0.0 mm 0.00 in0.0 mm
10:00 AM 52.0°F11.1°C 44.3°F6.8°C 75% 2.2 mph N3.5 kmh N 8.3 mph13.4 kmh 30.11 in1019.6 mb 0.00 in0.0 mm 0.00 in0.0 mm 0.00 in0.0 mm
10:10 AM 53.4°F11.9°C 45.7°F7.6°C 75% 4.5 mph NNW7.2 kmh NNW 9.8 mph15.8 kmh 30.10 in1019.3 mb 0.00 in0.0 mm 0.00 in0.0 mm 0.00 in0.0 mm
10:20 AM 55.0°F12.8°C 44.7°F7.1°C 68% 7.6 mph N12.2 kmh N 9.8 mph15.8 kmh 30.10 in1019.3 mb 0.00 in0.0 mm 0.00 in0.0 mm 0.00 in0.0 mm
10:30 AM 55.6°F13.1°C 44.8°F7.1°C 67% 4.5 mph N7.2 kmh N 10.7 mph17.2 kmh 30.10 in1019.3 mb 0.00 in0.0 mm 0.00 in0.0 mm 0.00 in0.0 mm
10:40 AM 56.8°F13.8°C 45.6°F7.6°C 66% 6.0 mph NNE9.7 kmh NNE 9.2 mph14.8 kmh 30.09 in1019.0 mb 0.00 in0.0 mm 0.00 in0.0 mm 0.00 in0.0 mm
10:50 AM 56.5°F13.6°C 45.3°F7.4°C 66% 6.9 mph N11.1 kmh N 10.7 mph17.2 kmh 30.09 in1019.0 mb 0.00 in0.0 mm 0.00 in0.0 mm 0.00 in0.0 mm
11:00 AM 57.4°F14.1°C 45.7°F7.6°C 65% 3.8 mph N6.1 kmh N 10.7 mph17.2 kmh 30.09 in1019.0 mb 0.00 in0.0 mm 0.00 in0.0 mm 0.00 in0.0 mm
11:10 AM 56.8°F13.8°C 45.2°F7.3°C 65% 6.0 mph N9.7 kmh N 11.4 mph18.3 kmh 30.10 in1019.3 mb 0.00 in0.0 mm 0.00 in0.0 mm 0.00 in0.0 mm
11:20 AM 57.6°F14.2°C 44.7°F7.1°C 62% 9.8 mph N15.8 kmh N 13.6 mph21.9 kmh 30.10 in1019.3 mb 0.00 in0.0 mm 0.00 in0.0 mm 0.00 in0.0 mm
11:30 AM 58.1°F14.5°C 45.2°F7.3°C 62% 3.8 mph NNW6.1 kmh NNW 13.6 mph21.9 kmh 30.09 in1019.0 mb 0.00 in0.0 mm 0.00 in0.0 mm 0.00 in0.0 mm
11:40 AM 57.9°F14.4°C 42.3°F5.7°C 56% 9.2 mph N14.8 kmh N 19.0 mph30.6 kmh 30.09 in1019.0 mb 0.00 in0.0 mm 0.00 in0.0 mm 0.00 in0.0 mm
11:50 AM 57.9°F14.4°C 42.8°F6.0°C 57% 12.1 mph N19.5 kmh N 19.7 mph31.7 kmh 30.09 in1019.0 mb 0.00 in0.0 mm 0.00 in0.0 mm 0.00 in0.0 mm
12:00 PM 57.9°F14.4°C 41.9°F5.5°C 55% 9.8 mph NNW15.8 kmh NNW 18.3 mph29.5 kmh 30.08 in1018.6 mb 0.00 in0.0 mm 0.00 in0.0 mm 0.00 in0.0 mm
12:10 PM 58.1°F14.5°C 42.5°F5.8°C 56% 9.8 mph NNW15.8 kmh NNW 18.3 mph29.5 kmh 30.09 in1019.0 mb 0.00 in0.0 mm 0.00 in0.0 mm 0.00 in0.0 mm
12:20 PM 58.3°F14.6°C 42.2°F5.7°C 55% 11.4 mph NNW18.3 kmh NNW 20.6 mph33.2 kmh 30.08 in1018.6 mb 0.00 in0.0 mm 0.00 in0.0 mm 0.00 in0.0 mm
12:30 PM 58.3°F14.6°C 42.2°F5.7°C 55% 8.3 mph NNW13.4 kmh NNW 18.3 mph29.5 kmh 30.07 in1018.3 mb 0.00 in0.0 mm 0.00 in0.0 mm 0.00 in0.0 mm
12:40 PM 59.2°F15.1°C 42.1°F5.6°C 53% 9.2 mph NNW14.8 kmh NNW 15.9 mph25.6 kmh 30.06 in1017.9 mb 0.00 in0.0 mm 0.00 in0.0 mm 0.00 in0.0 mm
12:50 PM 59.5°F15.3°C 42.4°F5.8°C 53% 8.3 mph NW13.4 kmh NW 15.9 mph25.6 kmh 30.05 in1017.6 mb 0.00 in0.0 mm 0.00 in0.0 mm 0.00 in0.0 mm
01:00 PM 59.4°F15.2°C 40.7°F4.8°C 50% 11.4 mph NNW18.3 kmh NNW 19.7 mph31.7 kmh 30.05 in1017.6 mb 0.00 in0.0 mm 0.00 in0.0 mm 0.00 in0.0 mm
01:10 PM 59.5°F15.3°C 41.4°F5.2°C 51% 8.3 mph N13.4 kmh N 20.6 mph33.2 kmh 30.04 in1017.3 mb 0.00 in0.0 mm 0.00 in0.0 mm 0.00 in0.0 mm
01:20 PM 59.5°F15.3°C 41.9°F5.5°C 52% 9.2 mph NNW14.8 kmh NNW 20.6 mph33.2 kmh 30.04 in1017.3 mb 0.00 in0.0 mm 0.00 in0.0 mm 0.00 in0.0 mm
01:30 PM 59.5°F15.3°C 42.4°F5.8°C 53% 13.6 mph NW21.9 kmh NW 21.3 mph34.3 kmh 30.03 in1016.9 mb 0.00 in0.0 mm 0.00 in0.0 mm 0.00 in0.0 mm
01:40 PM 59.7°F15.4°C 42.6°F5.9°C 53% 11.4 mph N18.3 kmh N 21.3 mph34.3 kmh 30.03 in1016.9 mb 0.00 in0.0 mm 0.00 in0.0 mm 0.00 in0.0 mm
01:50 PM 59.9°F15.5°C 42.2°F5.7°C 52% 7.6 mph N12.2 kmh N 19.7 mph31.7 kmh 30.02 in1016.6 mb 0.00 in0.0 mm 0.00 in0.0 mm 0.00 in0.0 mm
02:00 PM 59.7°F15.4°C 42.6°F5.9°C 53% 9.8 mph NNW15.8 kmh NNW 22.1 mph35.6 kmh 30.02 in1016.6 mb 0.00 in0.0 mm 0.00 in0.0 mm 0.00 in0.0 mm
02:10 PM 59.9°F15.5°C 42.2°F5.7°C 52% 9.2 mph NW14.8 kmh NW 19.0 mph30.6 kmh 30.02 in1016.6 mb 0.00 in0.0 mm 0.00 in0.0 mm 0.00 in0.0 mm
02:20 PM 60.4°F15.8°C 42.2°F5.7°C 51% 6.0 mph N9.7 kmh N 19.0 mph30.6 kmh 30.01 in1016.3 mb 0.00 in0.0 mm 0.00 in0.0 mm 0.00 in0.0 mm
02:30 PM 61.0°F16.1°C 41.7°F5.4°C 49% 13.0 mph NW20.9 kmh NW 15.2 mph24.5 kmh 30.01 in1016.3 mb 0.00 in0.0 mm 0.00 in0.0 mm 0.00 in0.0 mm
02:40 PM 61.2°F16.2°C 42.4°F5.8°C 50% 10.7 mph NNW17.2 kmh NNW 16.8 mph27.0 kmh 30.01 in1016.3 mb 0.00 in0.0 mm 0.00 in0.0 mm 0.00 in0.0 mm
02:50 PM 61.2°F16.2°C 42.4°F5.8°C 50% 8.3 mph NW13.4 kmh NW 13.6 mph21.9 kmh 30.01 in1016.3 mb 0.00 in0.0 mm 0.00 in0.0 mm 0.00 in0.0 mm
03:00 PM 61.2°F16.2°C 42.4°F5.8°C 50% 6.0 mph NNW9.7 kmh NNW 14.5 mph23.3 kmh 30.00 in1015.9 mb 0.00 in0.0 mm 0.00 in0.0 mm 0.00 in0.0 mm
03:10 PM 60.8°F16.0°C 42.1°F5.6°C 50% 8.3 mph N13.4 kmh N 15.2 mph24.5 kmh 30.00 in1015.9 mb 0.00 in0.0 mm 0.00 in0.0 mm 0.00 in0.0 mm
03:20 PM 61.7°F16.5°C 41.8°F5.4°C 48% 6.0 mph N9.7 kmh N 14.5 mph23.3 kmh 29.99 in1015.6 mb 0.00 in0.0 mm 0.00 in0.0 mm 0.00 in0.0 mm
03:30 PM 61.9°F16.6°C 41.4°F5.2°C 47% 6.9 mph N11.1 kmh N 11.4 mph18.3 kmh 29.98 in1015.2 mb 0.00 in0.0 mm 0.00 in0.0 mm 0.00 in0.0 mm
03:40 PM 61.9°F16.6°C 42.5°F5.8°C 49% 6.0 mph N9.7 kmh N 11.4 mph18.3 kmh 29.99 in1015.6 mb 0.00 in0.0 mm 0.00 in0.0 mm 0.00 in0.0 mm
03:50 PM 62.6°F17.0°C 43.2°F6.2°C 49% 3.8 mph N6.1 kmh N 8.3 mph13.4 kmh 29.98 in1015.2 mb 0.00 in0.0 mm 0.00 in0.0 mm 0.00 in0.0 mm
04:00 PM 62.8°F17.1°C 43.4°F6.3°C 49% 3.1 mph N5.0 kmh N 9.8 mph15.8 kmh 29.98 in1015.2 mb 0.00 in0.0 mm 0.00 in0.0 mm 0.00 in0.0 mm
04:10 PM 61.5°F16.4°C 43.7°F6.5°C 52% 8.3 mph N13.4 kmh N 12.1 mph19.5 kmh 29.98 in1015.2 mb 0.00 in0.0 mm 0.00 in0.0 mm 0.00 in0.0 mm
04:20 PM 60.1°F15.6°C 43.4°F6.3°C 54% 6.0 mph N9.7 kmh N 13.6 mph21.9 kmh 29.98 in1015.2 mb 0.00 in0.0 mm 0.00 in0.0 mm 0.00 in0.0 mm
04:30 PM 57.9°F14.4°C 43.7°F6.5°C 59% 6.0 mph N9.7 kmh N 13.6 mph21.9 kmh 29.98 in1015.2 mb 0.00 in0.0 mm 0.00 in0.0 mm 0.00 in0.0 mm
04:40 PM 59.0°F15.0°C 44.3°F6.8°C 58% 3.8 mph N6.1 kmh N 13.0 mph20.9 kmh 29.98 in1015.2 mb 0.00 in0.0 mm 0.00 in0.0 mm 0.00 in0.0 mm
04:50 PM 59.0°F15.0°C 43.3°F6.3°C 56% 3.1 mph N5.0 kmh N 10.7 mph17.2 kmh 29.98 in1015.2 mb 0.00 in0.0 mm 0.00 in0.0 mm 0.00 in0.0 mm
05:00 PM 57.6°F14.2°C 43.4°F6.3°C 59% 3.8 mph N6.1 kmh N 8.3 mph13.4 kmh 29.97 in1014.9 mb 0.00 in0.0 mm 0.00 in0.0 mm 0.00 in0.0 mm
05:10 PM 56.3°F13.5°C 44.3°F6.8°C 64% 1.6 mph NE2.6 kmh NE 7.6 mph12.2 kmh 29.96 in1014.6 mb 0.00 in0.0 mm 0.00 in0.0 mm 0.00 in0.0 mm
05:20 PM 55.2°F12.9°C 43.7°F6.5°C 65% Calm Calm 5.4 mph8.7 kmh 29.96 in1014.6 mb 0.00 in0.0 mm 0.00 in0.0 mm 0.00 in0.0 mm
05:30 PM 54.3°F12.4°C 44.0°F6.7°C 68% 3.1 mph N5.0 kmh N 7.6 mph12.2 kmh 29.96 in1014.6 mb 0.00 in0.0 mm 0.00 in0.0 mm 0.00 in0.0 mm
05:40 PM 55.0°F12.8°C 44.7°F7.1°C 68% 4.5 mph NW7.2 kmh NW 8.3 mph13.4 kmh 29.96 in1014.6 mb 0.00 in0.0 mm 0.00 in0.0 mm 0.00 in0.0 mm
05:50 PM 55.2°F12.9°C 44.1°F6.7°C 66% 4.5 mph N7.2 kmh N 12.1 mph19.5 kmh 29.96 in1014.6 mb 0.00 in0.0 mm 0.00 in0.0 mm 0.00 in0.0 mm
06:00 PM 55.2°F12.9°C 44.5°F6.9°C 67% 3.1 mph N5.0 kmh N 8.3 mph13.4 kmh 29.96 in1014.6 mb 0.00 in0.0 mm 0.00 in0.0 mm 0.00 in0.0 mm
06:10 PM 55.0°F12.8°C 45.1°F7.3°C 69% 4.5 mph N7.2 kmh N 7.6 mph12.2 kmh 29.96 in1014.6 mb 0.00 in0.0 mm 0.00 in0.0 mm 0.00 in0.0 mm
06:20 PM 55.4°F13.0°C 45.4°F7.4°C 69% 9.2 mph NNW14.8 kmh NNW 17.4 mph28.0 kmh 29.96 in1014.6 mb 0.00 in0.0 mm 0.00 in0.0 mm 0.00 in0.0 mm
06:30 PM 55.8°F13.2°C 45.4°F7.4°C 68% 6.9 mph N11.1 kmh N 17.4 mph28.0 kmh 29.96 in1014.6 mb 0.00 in0.0 mm 0.00 in0.0 mm 0.00 in0.0 mm
06:40 PM 55.4°F13.0°C 45.0°F7.2°C 68% 3.1 mph N5.0 kmh N 9.2 mph14.8 kmh 29.96 in1014.6 mb 0.00 in0.0 mm 0.00 in0.0 mm 0.00 in0.0 mm
06:50 PM 55.2°F12.9°C 45.2°F7.3°C 69% 4.5 mph N7.2 kmh N 6.9 mph11.1 kmh 29.96 in1014.6 mb 0.00 in0.0 mm 0.00 in0.0 mm 0.00 in0.0 mm
07:00 PM 54.0°F12.2°C 44.8°F7.1°C 71% 3.8 mph N6.1 kmh N 8.3 mph13.4 kmh 29.96 in1014.6 mb 0.00 in0.0 mm 0.00 in0.0 mm 0.00 in0.0 mm
07:10 PM 54.3°F12.4°C 45.1°F7.3°C 71% 3.1 mph N5.0 kmh N 6.9 mph11.1 kmh 29.95 in1014.2 mb 0.00 in0.0 mm 0.00 in0.0 mm 0.00 in0.0 mm
07:20 PM 53.4°F11.9°C 44.6°F7.0°C 72% 0.7 mph NNE1.1 kmh NNE 5.4 mph8.7 kmh 29.95 in1014.2 mb 0.00 in0.0 mm 0.00 in0.0 mm 0.00 in0.0 mm
07:30 PM 52.3°F11.3°C 44.3°F6.8°C 74% Calm Calm 3.1 mph5.0 kmh 29.94 in1013.9 mb 0.00 in0.0 mm 0.00 in0.0 mm 0.00 in0.0 mm
07:40 PM 52.0°F11.1°C 44.7°F7.1°C 76% 1.6 mph NNE2.6 kmh NNE 3.1 mph5.0 kmh 29.95 in1014.2 mb 0.00 in0.0 mm 0.00 in0.0 mm 0.00 in0.0 mm
07:50 PM 51.6°F10.9°C 44.7°F7.1°C 77% 0.7 mph NNE1.1 kmh NNE 3.1 mph5.0 kmh 29.95 in1014.2 mb 0.00 in0.0 mm 0.00 in0.0 mm 0.00 in0.0 mm
08:00 PM 51.4°F10.8°C 44.8°F7.1°C 78% Calm Calm 2.2 mph3.5 kmh 29.95 in1014.2 mb 0.00 in0.0 mm 0.00 in0.0 mm 0.00 in0.0 mm
08:10 PM 51.1°F10.6°C 44.8°F7.1°C 79% Calm Calm 3.1 mph5.0 kmh 29.94 in1013.9 mb 0.00 in0.0 mm 0.00 in0.0 mm 0.00 in0.0 mm
08:20 PM 50.2°F10.1°C 43.9°F6.6°C 79% 0.7 mph W1.1 kmh W 2.2 mph3.5 kmh 29.94 in1013.9 mb 0.00 in0.0 mm 0.00 in0.0 mm 0.00 in0.0 mm
08:30 PM 49.6°F9.8°C 44.4°F6.9°C 82% 3.1 mph N5.0 kmh N 6.0 mph9.7 kmh 29.93 in1013.5 mb 0.00 in0.0 mm 0.00 in0.0 mm 0.00 in0.0 mm
08:40 PM 49.3°F9.6°C 44.7°F7.1°C 84% 0.7 mph NNW1.1 kmh NNW 6.0 mph9.7 kmh 29.93 in1013.5 mb 0.00 in0.0 mm 0.00 in0.0 mm 0.00 in0.0 mm
08:50 PM 48.7°F9.3°C 44.1°F6.7°C 84% Calm Calm 3.1 mph5.0 kmh 29.93 in1013.5 mb 0.00 in0.0 mm 0.00 in0.0 mm 0.00 in0.0 mm
09:00 PM 48.6°F9.2°C 44.3°F6.8°C 85% 2.2 mph NW3.5 kmh NW 3.1 mph5.0 kmh 29.93 in1013.5 mb 0.00 in0.0 mm 0.00 in0.0 mm 0.00 in0.0 mm
09:10 PM 48.0°F8.9°C 44.0°F6.7°C 86% Calm Calm 3.1 mph5.0 kmh 29.93 in1013.5 mb 0.00 in0.0 mm 0.00 in0.0 mm 0.00 in0.0 mm
09:20 PM 47.5°F8.6°C 43.5°F6.4°C 86% Calm Calm 3.1 mph5.0 kmh 29.93 in1013.5 mb 0.00 in0.0 mm 0.00 in0.0 mm 0.00 in0.0 mm
09:30 PM 46.9°F8.3°C 43.0°F6.1°C 86% 0.7 mph E1.1 kmh E 3.1 mph5.0 kmh 29.93 in1013.5 mb 0.00 in0.0 mm 0.00 in0.0 mm 0.00 in0.0 mm
09:40 PM 46.4°F8.0°C 42.7°F5.9°C 87% 1.6 mph E2.6 kmh E 3.1 mph5.0 kmh 29.92 in1013.2 mb 0.00 in0.0 mm 0.00 in0.0 mm 0.00 in0.0 mm
09:50 PM 48.4°F9.1°C 45.3°F7.4°C 89% 1.6 mph NE2.6 kmh NE 3.8 mph6.1 kmh 29.92 in1013.2 mb 0.00 in0.0 mm 0.00 in0.0 mm 0.00 in0.0 mm
10:00 PM 51.4°F10.8°C 47.4°F8.6°C 86% 4.5 mph N7.2 kmh N 8.3 mph13.4 kmh 29.91 in1012.9 mb 0.00 in0.0 mm 0.00 in0.0 mm 0.00 in0.0 mm
10:10 PM 53.6°F12.0°C 47.6°F8.7°C 80% 4.5 mph NE7.2 kmh NE 10.7 mph17.2 kmh 29.89 in1012.2 mb 0.00 in0.0 mm 0.00 in0.0 mm 0.00 in0.0 mm
10:20 PM 54.7°F12.6°C 46.9°F8.3°C 75% 7.6 mph NE12.2 kmh NE 12.1 mph19.5 kmh 29.90 in1012.5 mb 0.00 in0.0 mm 0.00 in0.0 mm 0.00 in0.0 mm
10:30 PM 55.0°F12.8°C 46.9°F8.3°C 74% 3.1 mph NE5.0 kmh NE 12.1 mph19.5 kmh 29.90 in1012.5 mb 0.00 in0.0 mm 0.00 in0.0 mm 0.00 in0.0 mm
10:40 PM 54.9°F12.7°C 46.7°F8.2°C 74% 3.8 mph NE6.1 kmh NE 11.4 mph18.3 kmh 29.89 in1012.2 mb 0.00 in0.0 mm 0.00 in0.0 mm 0.00 in0.0 mm
10:50 PM 54.7°F12.6°C 46.9°F8.3°C 75% 0.7 mph NE1.1 kmh NE 6.9 mph11.1 kmh 29.89 in1012.2 mb 0.00 in0.0 mm 0.00 in0.0 mm 0.00 in0.0 mm
11:00 PM 54.1°F12.3°C 46.4°F8.0°C 75% 1.6 mph N2.6 kmh N 3.8 mph6.1 kmh 29.89 in1012.2 mb 0.00 in0.0 mm 0.00 in0.0 mm 0.00 in0.0 mm
11:10 PM 54.7°F12.6°C 46.9°F8.3°C 75% 4.5 mph N7.2 kmh N 7.6 mph12.2 kmh 29.88 in1011.9 mb 0.00 in0.0 mm 0.00 in0.0 mm 0.00 in0.0 mm
11:20 PM 55.4°F13.0°C 46.9°F8.3°C 73% 3.8 mph N6.1 kmh N 7.6 mph12.2 kmh 29.88 in1011.9 mb 0.00 in0.0 mm 0.00 in0.0 mm 0.00 in0.0 mm
11:30 PM 55.2°F12.9°C 46.7°F8.2°C 73% 3.8 mph NNW6.1 kmh NNW 7.6 mph12.2 kmh 29.88 in1011.9 mb 0.00 in0.0 mm 0.00 in0.0 mm 0.00 in0.0 mm
11:40 PM 55.6°F13.1°C 47.4°F8.6°C 74% 4.5 mph N7.2 kmh N 9.2 mph14.8 kmh 29.87 in1011.5 mb 0.00 in0.0 mm 0.00 in0.0 mm 0.00 in0.0 mm
11:50 PM 56.8°F13.8°C 47.5°F8.6°C 71% 5.4 mph NE8.7 kmh NE 13.0 mph20.9 kmh 29.87 in1011.5 mb 0.00 in0.0 mm 0.00 in0.0 mm 0.00 in0.0 mm